sensor_id;sensor_type;location;lat;lon;timestamp;pressure;altitude;pressure_sealevel;temperature;humidity
8039;BME280;4062;49.844;8.120;2022-08-21T00:00:44;99421.53;;;20.80;56.81
8039;BME280;4062;49.844;8.120;2022-08-21T00:02:51;99418.84;;;20.80;56.64
8039;BME280;4062;49.844;8.120;2022-08-21T00:04:53;99417.03;;;20.81;56.76
8039;BME280;4062;49.844;8.120;2022-08-21T00:06:54;99415.28;;;20.80;56.71
8039;BME280;4062;49.844;8.120;2022-08-21T00:08:54;99419.69;;;20.81;56.59
8039;BME280;4062;49.844;8.120;2022-08-21T00:10:55;99418.84;;;20.80;56.64
8039;BME280;4062;49.844;8.120;2022-08-21T00:12:56;99415.28;;;20.80;56.88
8039;BME280;4062;49.844;8.120;2022-08-21T00:14:58;99418.84;;;20.80;56.87
8039;BME280;4062;49.844;8.120;2022-08-21T00:16:59;99415.28;;;20.80;56.57
8039;BME280;4062;49.844;8.120;2022-08-21T00:19:00;99416.16;;;20.80;56.88
8039;BME280;4062;49.844;8.120;2022-08-21T00:21:01;99416.16;;;20.80;56.57
8039;BME280;4062;49.844;8.120;2022-08-21T00:23:02;99409.06;;;20.79;56.76
8039;BME280;4062;49.844;8.120;2022-08-21T00:25:05;99411.75;;;20.79;56.96
8039;BME280;4062;49.844;8.120;2022-08-21T00:27:06;99421.53;;;20.80;56.69
8039;BME280;4062;49.844;8.120;2022-08-21T00:29:07;99413.50;;;20.80;56.55
8039;BME280;4062;49.844;8.120;2022-08-21T00:31:08;99412.59;;;20.80;56.91
8039;BME280;4062;49.844;8.120;2022-08-21T00:33:10;99414.34;;;20.81;56.87
8039;BME280;4062;49.844;8.120;2022-08-21T00:35:16;99413.50;;;20.80;56.90
8039;BME280;4062;49.844;8.120;2022-08-21T00:37:18;99413.50;;;20.80;56.65
8039;BME280;4062;49.844;8.120;2022-08-21T00:39:19;99406.38;;;20.79;56.67
8039;BME280;4062;49.844;8.120;2022-08-21T00:41:19;99418.84;;;20.80;56.89
8039;BME280;4062;49.844;8.120;2022-08-21T00:43:28;99412.59;;;20.80;56.84
8039;BME280;4062;49.844;8.120;2022-08-21T00:45:30;99412.59;;;20.80;56.76
8039;BME280;4062;49.844;8.120;2022-08-21T00:47:32;99407.25;;;20.80;56.77
8039;BME280;4062;49.844;8.120;2022-08-21T00:49:32;99411.66;;;20.81;56.75
8039;BME280;4062;49.844;8.120;2022-08-21T00:51:51;99411.75;;;20.79;57.04
8039;BME280;4062;49.844;8.120;2022-08-21T00:53:57;99409.94;;;20.80;56.82
8039;BME280;4062;49.844;8.120;2022-08-21T00:56:02;99404.56;;;20.80;56.52
8039;BME280;4062;49.844;8.120;2022-08-21T00:58:06;99397.38;;;20.80;56.79
8039;BME280;4062;49.844;8.120;2022-08-21T01:00:13;99400.19;;;20.79;56.71
8039;BME280;4062;49.844;8.120;2022-08-21T01:02:15;99405.53;;;20.79;56.84
8039;BME280;4062;49.844;8.120;2022-08-21T01:04:16;99401.03;;;20.79;56.55
8039;BME280;4062;49.844;8.120;2022-08-21T01:06:17;99407.25;;;20.80;56.66
8039;BME280;4062;49.844;8.120;2022-08-21T01:08:19;99403.72;;;20.79;56.82
8039;BME280;4062;49.844;8.120;2022-08-21T01:10:20;99405.53;;;20.79;56.92
8039;BME280;4062;49.844;8.120;2022-08-21T01:12:21;99401.88;;;20.80;56.79
8039;BME280;4062;49.844;8.120;2022-08-21T01:14:23;99401.03;;;20.79;57.07
8039;BME280;4062;49.844;8.120;2022-08-21T01:16:24;99401.88;;;20.80;56.74
8039;BME280;4062;49.844;8.120;2022-08-21T01:18:27;99400.19;;;20.79;56.66
8039;BME280;4062;49.844;8.120;2022-08-21T01:20:27;99412.59;;;20.80;56.51
8039;BME280;4062;49.844;8.120;2022-08-21T01:22:28;99406.38;;;20.79;56.61
8039;BME280;4062;49.844;8.120;2022-08-21T01:24:29;99401.03;;;20.79;56.88
8039;BME280;4062;49.844;8.120;2022-08-21T01:26:34;99395.66;;;20.79;56.63
8039;BME280;4062;49.844;8.120;2022-08-21T01:28:45;99401.97;;;20.78;56.77
8039;BME280;4062;49.844;8.120;2022-08-21T01:30:50;99403.72;;;20.79;56.64
8039;BME280;4062;49.844;8.120;2022-08-21T01:32:53;99403.72;;;20.79;56.96
8039;BME280;4062;49.844;8.120;2022-08-21T01:34:54;99394.81;;;20.79;56.68
8039;BME280;4062;49.844;8.120;2022-08-21T01:36:55;99407.34;;;20.78;56.66
8039;BME280;4062;49.844;8.120;2022-08-21T01:38:56;99401.03;;;20.79;56.67
8039;BME280;4062;49.844;8.120;2022-08-21T01:40:57;99398.34;;;20.79;56.79
8039;BME280;4062;49.844;8.120;2022-08-21T01:42:57;99398.34;;;20.79;56.59
8039;BME280;4062;49.844;8.120;2022-08-21T01:44:58;99392.13;;;20.79;56.81
8039;BME280;4062;49.844;8.120;2022-08-21T01:47:04;99399.19;;;20.80;56.53
8039;BME280;4062;49.844;8.120;2022-08-21T01:49:06;99395.66;;;20.79;56.60
8039;BME280;4062;49.844;8.120;2022-08-21T01:51:07;99394.81;;;20.79;56.84
8039;BME280;4062;49.844;8.120;2022-08-21T01:53:08;99390.28;;;20.79;56.82
8039;BME280;4062;49.844;8.120;2022-08-21T01:55:10;99389.44;;;20.79;56.62
8039;BME280;4062;49.844;8.120;2022-08-21T01:57:13;99384.91;;;20.79;56.64
8039;BME280;4062;49.844;8.120;2022-08-21T01:59:14;99381.38;;;20.79;56.68
8039;BME280;4062;49.844;8.120;2022-08-21T02:01:15;99376.84;;;20.79;56.77
8039;BME280;4062;49.844;8.120;2022-08-21T02:03:16;99376.00;;;20.79;56.74
8039;BME280;4062;49.844;8.120;2022-08-21T02:05:17;99377.81;;;20.78;56.90
8039;BME280;4062;49.844;8.120;2022-08-21T02:07:18;99386.75;;;20.79;56.77
8039;BME280;4062;49.844;8.120;2022-08-21T02:09:19;99381.38;;;20.79;56.71
8039;BME280;4062;49.844;8.120;2022-08-21T02:11:22;99384.06;;;20.79;56.61
8039;BME280;4062;49.844;8.120;2022-08-21T02:13:22;99378.69;;;20.79;56.64
8039;BME280;4062;49.844;8.120;2022-08-21T02:15:23;99379.53;;;20.79;56.79
8039;BME280;4062;49.844;8.120;2022-08-21T02:17:24;99373.31;;;20.79;56.75
8039;BME280;4062;49.844;8.120;2022-08-21T02:19:24;99377.81;;;20.78;56.86
8039;BME280;4062;49.844;8.120;2022-08-21T02:21:25;99385.88;;;20.78;57.10
8039;BME280;4062;49.844;8.120;2022-08-21T02:23:26;99377.81;;;20.78;56.90
8039;BME280;4062;49.844;8.120;2022-08-21T02:25:28;99377.81;;;20.78;56.68
8039;BME280;4062;49.844;8.120;2022-08-21T02:27:29;99380.50;;;20.78;56.49
8039;BME280;4062;49.844;8.120;2022-08-21T02:29:29;99378.69;;;20.79;56.59
8039;BME280;4062;49.844;8.120;2022-08-21T02:31:30;99381.38;;;20.79;56.65
8039;BME280;4062;49.844;8.120;2022-08-21T02:33:31;99377.81;;;20.78;56.85
8039;BME280;4062;49.844;8.120;2022-08-21T02:35:32;99388.56;;;20.78;56.89
8039;BME280;4062;49.844;8.120;2022-08-21T02:37:33;99378.69;;;20.79;56.90
8039;BME280;4062;49.844;8.120;2022-08-21T02:39:34;99378.69;;;20.79;56.75
8039;BME280;4062;49.844;8.120;2022-08-21T02:41:34;99384.91;;;20.79;57.08
8039;BME280;4062;49.844;8.120;2022-08-21T02:43:35;99378.69;;;20.79;57.01
8039;BME280;4062;49.844;8.120;2022-08-21T02:45:37;99378.69;;;20.79;56.99
8039;BME280;4062;49.844;8.120;2022-08-21T02:47:38;99377.81;;;20.78;56.79
8039;BME280;4062;49.844;8.120;2022-08-21T02:49:39;99384.91;;;20.79;56.61
8039;BME280;4062;49.844;8.120;2022-08-21T02:51:39;99376.00;;;20.79;57.05
8039;BME280;4062;49.844;8.120;2022-08-21T02:53:41;99371.59;;;20.77;57.04
8039;BME280;4062;49.844;8.120;2022-08-21T02:55:44;99378.69;;;20.79;56.81
8039;BME280;4062;49.844;8.120;2022-08-21T02:57:45;99387.72;;;20.77;56.55
8039;BME280;4062;49.844;8.120;2022-08-21T02:59:46;99387.72;;;20.77;56.85
8039;BME280;4062;49.844;8.120;2022-08-21T03:01:47;99381.47;;;20.77;56.65
8039;BME280;4062;49.844;8.120;2022-08-21T03:03:48;99383.19;;;20.78;56.84
8039;BME280;4062;49.844;8.120;2022-08-21T03:05:51;99376.97;;;20.77;56.71
8039;BME280;4062;49.844;8.120;2022-08-21T03:07:52;99381.38;;;20.79;56.62
8039;BME280;4062;49.844;8.120;2022-08-21T03:09:53;99383.19;;;20.78;56.56
8039;BME280;4062;49.844;8.120;2022-08-21T03:11:54;99375.13;;;20.78;56.68
8039;BME280;4062;49.844;8.120;2022-08-21T03:13:54;99382.34;;;20.77;56.53
8039;BME280;4062;49.844;8.120;2022-08-21T03:15:56;99379.66;;;20.77;56.59
8039;BME280;4062;49.844;8.120;2022-08-21T03:17:56;99370.72;;;20.77;56.72
8039;BME280;4062;49.844;8.120;2022-08-21T03:19:58;99368.91;;;20.77;56.73
8039;BME280;4062;49.844;8.120;2022-08-21T03:21:58;99373.41;;;20.77;56.65
8039;BME280;4062;49.844;8.120;2022-08-21T03:23:59;99366.22;;;20.77;56.50
8039;BME280;4062;49.844;8.120;2022-08-21T03:26:00;99368.03;;;20.77;57.03
8039;BME280;4062;49.844;8.120;2022-08-21T03:28:10;99369.88;;;20.76;56.62
8039;BME280;4062;49.844;8.120;2022-08-21T03:30:11;99368.91;;;20.77;57.04
8039;BME280;4062;49.844;8.120;2022-08-21T03:32:12;99364.38;;;20.78;56.86
8039;BME280;4062;49.844;8.120;2022-08-21T03:34:13;99368.03;;;20.77;56.80
8039;BME280;4062;49.844;8.120;2022-08-21T03:36:15;99365.34;;;20.77;56.59
8039;BME280;4062;49.844;8.120;2022-08-21T03:38:16;99368.03;;;20.77;56.75
8039;BME280;4062;49.844;8.120;2022-08-21T03:40:19;99368.03;;;20.77;56.71
8039;BME280;4062;49.844;8.120;2022-08-21T03:42:20;99376.97;;;20.77;56.74
8039;BME280;4062;49.844;8.120;2022-08-21T03:44:21;99364.50;;;20.76;56.66
8039;BME280;4062;49.844;8.120;2022-08-21T03:46:22;99370.72;;;20.77;56.80
8039;BME280;4062;49.844;8.120;2022-08-21T03:48:23;99372.44;;;20.78;56.79
8039;BME280;4062;49.844;8.120;2022-08-21T03:50:28;99375.13;;;20.78;56.62
8039;BME280;4062;49.844;8.120;2022-08-21T03:52:29;99369.88;;;20.76;56.79
8039;BME280;4062;49.844;8.120;2022-08-21T03:54:29;99371.69;;;20.76;56.68
8039;BME280;4062;49.844;8.120;2022-08-21T03:56:30;99376.97;;;20.77;56.79
8039;BME280;4062;49.844;8.120;2022-08-21T03:58:31;99370.72;;;20.77;56.66
8039;BME280;4062;49.844;8.120;2022-08-21T04:00:32;99372.56;;;20.76;56.92
8039;BME280;4062;49.844;8.120;2022-08-21T04:02:33;99377.94;;;20.76;56.94
8039;BME280;4062;49.844;8.120;2022-08-21T04:04:34;99378.78;;;20.77;56.75
8039;BME280;4062;49.844;8.120;2022-08-21T04:06:35;99392.19;;;20.77;56.96
8039;BME280;4062;49.844;8.120;2022-08-21T04:08:36;99376.09;;;20.77;56.71
8039;BME280;4062;49.844;8.120;2022-08-21T04:10:38;99387.72;;;20.77;56.84
8039;BME280;4062;49.844;8.120;2022-08-21T04:12:39;99374.38;;;20.76;56.88
8039;BME280;4062;49.844;8.120;2022-08-21T04:14:40;99393.06;;;20.77;56.90
8039;BME280;4062;49.844;8.120;2022-08-21T04:16:43;99377.94;;;20.76;56.86
8039;BME280;4062;49.844;8.120;2022-08-21T04:18:44;99389.50;;;20.77;56.67
8039;BME280;4062;49.844;8.120;2022-08-21T04:20:48;99389.50;;;20.77;56.82
8039;BME280;4062;49.844;8.120;2022-08-21T04:22:50;99385.09;;;20.76;56.58
8039;BME280;4062;49.844;8.120;2022-08-21T04:24:51;99389.50;;;20.77;56.65
8039;BME280;4062;49.844;8.120;2022-08-21T04:26:51;99389.50;;;20.77;56.98
8039;BME280;4062;49.844;8.120;2022-08-21T04:28:52;99394.88;;;20.77;56.80
8039;BME280;4062;49.844;8.120;2022-08-21T04:30:53;99391.34;;;20.76;57.05
8039;BME280;4062;49.844;8.120;2022-08-21T04:32:55;99397.56;;;20.77;56.85
8039;BME280;4062;49.844;8.120;2022-08-21T04:35:03;99395.84;;;20.76;56.91
8039;BME280;4062;49.844;8.120;2022-08-21T04:37:04;99404.78;;;20.76;56.92
8039;BME280;4062;49.844;8.120;2022-08-21T04:39:05;99403.81;;;20.77;56.75
8039;BME280;4062;49.844;8.120;2022-08-21T04:41:06;99403.91;;;20.76;56.75
8039;BME280;4062;49.844;8.120;2022-08-21T04:45:17;99411.97;;;20.76;57.03
8039;BME280;4062;49.844;8.120;2022-08-21T04:47:21;99406.59;;;20.76;56.93
8039;BME280;4062;49.844;8.120;2022-08-21T04:49:21;99412.84;;;20.76;56.49
8039;BME280;4062;49.844;8.120;2022-08-21T04:51:27;99409.28;;;20.76;56.63
8039;BME280;4062;49.844;8.120;2022-08-21T04:53:41;99419.06;;;20.77;57.00
8039;BME280;4062;49.844;8.120;2022-08-21T04:55:43;99412.91;;;20.75;56.75
8039;BME280;4062;49.844;8.120;2022-08-21T04:57:45;99411.00;;;20.77;56.75
8039;BME280;4062;49.844;8.120;2022-08-21T04:59:49;99418.19;;;20.76;56.92
8039;BME280;4062;49.844;8.120;2022-08-21T05:01:52;99410.22;;;20.75;56.76
8039;BME280;4062;49.844;8.120;2022-08-21T05:03:59;99417.31;;;20.76;57.00
8039;BME280;4062;49.844;8.120;2022-08-21T05:06:00;99417.31;;;20.76;56.56
8039;BME280;4062;49.844;8.120;2022-08-21T05:08:05;99422.69;;;20.76;56.80
8039;BME280;4062;49.844;8.120;2022-08-21T05:10:08;99420.00;;;20.76;57.03
8039;BME280;4062;49.844;8.120;2022-08-21T05:12:09;99427.09;;;20.77;56.69
8039;BME280;4062;49.844;8.120;2022-08-21T05:14:12;99422.69;;;20.76;56.58
8039;BME280;4062;49.844;8.120;2022-08-21T05:16:13;99421.84;;;20.75;57.00
8039;BME280;4062;49.844;8.120;2022-08-21T05:18:13;99423.56;;;20.76;56.99
8039;BME280;4062;49.844;8.120;2022-08-21T05:20:14;99421.84;;;20.75;56.92
8039;BME280;4062;49.844;8.120;2022-08-21T05:22:22;99427.22;;;20.75;56.98
8039;BME280;4062;49.844;8.120;2022-08-21T05:24:25;99421.84;;;20.75;56.98
8039;BME280;4062;49.844;8.120;2022-08-21T05:26:26;99424.41;;;20.77;57.15
8039;BME280;4062;49.844;8.120;2022-08-21T05:28:26;99425.38;;;20.76;56.69
8039;BME280;4062;49.844;8.120;2022-08-21T05:30:27;99425.38;;;20.76;56.96
8039;BME280;4062;49.844;8.120;2022-08-21T05:32:28;99426.25;;;20.76;56.74
8039;BME280;4062;49.844;8.120;2022-08-21T05:34:29;99420.00;;;20.76;56.72
8039;BME280;4062;49.844;8.120;2022-08-21T05:36:30;99426.34;;;20.75;56.91
8039;BME280;4062;49.844;8.120;2022-08-21T05:38:31;99421.84;;;20.75;56.73
8039;BME280;4062;49.844;8.120;2022-08-21T05:40:32;99428.06;;;20.76;56.87
8039;BME280;4062;49.844;8.120;2022-08-21T05:42:33;99429.03;;;20.75;56.62
8039;BME280;4062;49.844;8.120;2022-08-21T05:44:34;99431.72;;;20.75;56.62
8039;BME280;4062;49.844;8.120;2022-08-21T05:46:34;99428.06;;;20.76;56.98
8039;BME280;4062;49.844;8.120;2022-08-21T05:48:36;99428.06;;;20.76;57.09
8039;BME280;4062;49.844;8.120;2022-08-21T05:50:37;99428.94;;;20.76;56.75
8039;BME280;4062;49.844;8.120;2022-08-21T05:52:38;99426.25;;;20.76;57.09
8039;BME280;4062;49.844;8.120;2022-08-21T05:54:39;99428.94;;;20.76;56.73
8039;BME280;4062;49.844;8.120;2022-08-21T05:56:39;99428.06;;;20.76;57.05
8039;BME280;4062;49.844;8.120;2022-08-21T05:58:41;99428.06;;;20.76;56.94
8039;BME280;4062;49.844;8.120;2022-08-21T06:00:43;99426.34;;;20.75;56.68
8039;BME280;4062;49.844;8.120;2022-08-21T06:02:44;99422.69;;;20.76;56.79
8039;BME280;4062;49.844;8.120;2022-08-21T06:04:45;99429.91;;;20.75;57.09
8039;BME280;4062;49.844;8.120;2022-08-21T06:06:46;99424.53;;;20.75;56.86
8039;BME280;4062;49.844;8.120;2022-08-21T06:08:48;99428.06;;;20.76;56.85
8039;BME280;4062;49.844;8.120;2022-08-21T06:10:51;99428.06;;;20.76;56.67
8039;BME280;4062;49.844;8.120;2022-08-21T06:12:55;99432.47;;;20.77;56.66
8039;BME280;4062;49.844;8.120;2022-08-21T06:14:55;99430.75;;;20.76;56.98
8039;BME280;4062;49.844;8.120;2022-08-21T06:17:03;99427.22;;;20.75;56.87
8039;BME280;4062;49.844;8.120;2022-08-21T06:19:04;99428.06;;;20.76;56.85
8039;BME280;4062;49.844;8.120;2022-08-21T06:21:06;99421.84;;;20.75;56.70
8039;BME280;4062;49.844;8.120;2022-08-21T06:23:07;99426.25;;;20.76;56.93
8039;BME280;4062;49.844;8.120;2022-08-21T06:25:08;99430.75;;;20.76;56.68
8039;BME280;4062;49.844;8.120;2022-08-21T06:27:09;99425.38;;;20.76;57.05
8039;BME280;4062;49.844;8.120;2022-08-21T06:29:10;99432.59;;;20.75;56.96
8039;BME280;4062;49.844;8.120;2022-08-21T06:31:22;99428.06;;;20.76;57.07
8039;BME280;4062;49.844;8.120;2022-08-21T06:33:23;99424.53;;;20.75;57.11
8039;BME280;4062;49.844;8.120;2022-08-21T06:35:24;99426.25;;;20.76;56.71
8039;BME280;4062;49.844;8.120;2022-08-21T06:37:29;99426.25;;;20.76;57.00
8039;BME280;4062;49.844;8.120;2022-08-21T06:39:31;99420.00;;;20.76;56.66
8039;BME280;4062;49.844;8.120;2022-08-21T06:41:33;99428.06;;;20.76;57.10
8039;BME280;4062;49.844;8.120;2022-08-21T06:43:34;99416.47;;;20.75;56.63
8039;BME280;4062;49.844;8.120;2022-08-21T06:45:36;99420.00;;;20.76;56.93
8039;BME280;4062;49.844;8.120;2022-08-21T06:47:37;99422.69;;;20.76;56.83
8039;BME280;4062;49.844;8.120;2022-08-21T06:49:37;99422.69;;;20.76;56.79
8039;BME280;4062;49.844;8.120;2022-08-21T06:51:39;99421.84;;;20.75;56.85
8039;BME280;4062;49.844;8.120;2022-08-21T06:53:40;99421.84;;;20.75;56.67
8039;BME280;4062;49.844;8.120;2022-08-21T06:55:41;99417.31;;;20.76;56.79
8039;BME280;4062;49.844;8.120;2022-08-21T06:57:42;99421.84;;;20.75;56.51
8039;BME280;4062;49.844;8.120;2022-08-21T06:59:43;99415.53;;;20.76;56.75
8039;BME280;4062;49.844;8.120;2022-08-21T07:01:44;99415.59;;;20.75;57.06
8039;BME280;4062;49.844;8.120;2022-08-21T07:03:44;99419.16;;;20.75;56.61
8039;BME280;4062;49.844;8.120;2022-08-21T07:05:45;99421.75;;;20.77;56.74
8039;BME280;4062;49.844;8.120;2022-08-21T07:07:46;99418.28;;;20.75;56.67
8039;BME280;4062;49.844;8.120;2022-08-21T07:09:47;99417.31;;;20.76;56.98
8039;BME280;4062;49.844;8.120;2022-08-21T07:11:52;99416.47;;;20.75;56.78
8039;BME280;4062;49.844;8.120;2022-08-21T07:13:53;99418.28;;;20.75;56.60
8039;BME280;4062;49.844;8.120;2022-08-21T07:15:56;99417.31;;;20.76;56.60
8039;BME280;4062;49.844;8.120;2022-08-21T07:17:59;99420.00;;;20.76;57.04
8039;BME280;4062;49.844;8.120;2022-08-21T07:20:00;99419.06;;;20.77;56.79
8039;BME280;4062;49.844;8.120;2022-08-21T07:22:01;99420.88;;;20.76;56.72
8039;BME280;4062;49.844;8.120;2022-08-21T07:24:02;99419.06;;;20.77;56.81
8039;BME280;4062;49.844;8.120;2022-08-21T07:26:04;99418.19;;;20.76;56.88
8039;BME280;4062;49.844;8.120;2022-08-21T07:28:05;99421.75;;;20.77;56.86
8039;BME280;4062;49.844;8.120;2022-08-21T07:30:06;99420.88;;;20.76;57.05
8039;BME280;4062;49.844;8.120;2022-08-21T07:32:07;99427.97;;;20.77;56.53
8039;BME280;4062;49.844;8.120;2022-08-21T07:34:08;99425.31;;;20.77;56.68
8039;BME280;4062;49.844;8.120;2022-08-21T07:36:09;99420.78;;;20.78;56.67
8039;BME280;4062;49.844;8.120;2022-08-21T07:38:10;99427.88;;;20.79;56.74
8039;BME280;4062;49.844;8.120;2022-08-21T07:40:12;99428.72;;;20.80;56.85
8039;BME280;4062;49.844;8.120;2022-08-21T07:42:13;99424.22;;;20.80;56.90
8039;BME280;4062;49.844;8.120;2022-08-21T07:44:14;99425.06;;;20.81;56.85
8039;BME280;4062;49.844;8.120;2022-08-21T07:46:14;99425.06;;;20.81;56.90
8039;BME280;4062;49.844;8.120;2022-08-21T07:48:16;99420.59;;;20.81;56.87
8039;BME280;4062;49.844;8.120;2022-08-21T07:50:17;99420.59;;;20.81;56.87
8039;BME280;4062;49.844;8.120;2022-08-21T07:52:18;99418.66;;;20.83;56.79
8039;BME280;4062;49.844;8.120;2022-08-21T07:54:19;99415.09;;;20.83;56.83
8039;BME280;4062;49.844;8.120;2022-08-21T07:56:20;99412.31;;;20.84;56.74
8039;BME280;4062;49.844;8.120;2022-08-21T07:58:21;99415.88;;;20.85;56.60
8039;BME280;4062;49.844;8.120;2022-08-21T08:00:24;99405.00;;;20.86;56.68
8039;BME280;4062;49.844;8.120;2022-08-21T08:02:28;99408.56;;;20.87;56.46
8039;BME280;4062;49.844;8.120;2022-08-21T08:04:28;99413.84;;;20.88;56.52
8039;BME280;4062;49.844;8.120;2022-08-21T08:06:29;99407.50;;;20.89;56.70
8039;BME280;4062;49.844;8.120;2022-08-21T08:08:31;99402.03;;;20.91;56.44
8039;BME280;4062;49.844;8.120;2022-08-21T08:10:32;99403.75;;;20.92;56.07
8039;BME280;4062;49.844;8.120;2022-08-21T08:12:39;99403.75;;;20.92;56.19
8039;BME280;4062;49.844;8.120;2022-08-21T08:14:40;99404.63;;;20.92;56.31
8039;BME280;4062;49.844;8.120;2022-08-21T08:16:41;99401.81;;;20.94;56.12
8039;BME280;4062;49.844;8.120;2022-08-21T08:18:42;99405.34;;;20.95;56.24
8039;BME280;4062;49.844;8.120;2022-08-21T08:20:44;99407.09;;;20.96;56.32
8039;BME280;4062;49.844;8.120;2022-08-21T08:22:45;99399.03;;;20.96;56.26
8039;BME280;4062;49.844;8.120;2022-08-21T08:24:47;99399.91;;;20.96;56.29
8039;BME280;4062;49.844;8.120;2022-08-21T08:26:48;99396.34;;;20.96;56.24
8039;BME280;4062;49.844;8.120;2022-08-21T08:28:49;99395.38;;;20.97;56.10
8039;BME280;4062;49.844;8.120;2022-08-21T08:30:50;99395.25;;;20.98;56.51
8039;BME280;4062;49.844;8.120;2022-08-21T08:32:51;99396.13;;;20.99;56.52
8039;BME280;4062;49.844;8.120;2022-08-21T08:34:52;99393.44;;;20.99;56.14
8039;BME280;4062;49.844;8.120;2022-08-21T08:36:53;99391.63;;;20.99;56.29
8039;BME280;4062;49.844;8.120;2022-08-21T08:38:54;99387.13;;;21.00;56.52
8039;BME280;4062;49.844;8.120;2022-08-21T08:41:14;99386.16;;;21.01;56.37
8039;BME280;4062;49.844;8.120;2022-08-21T08:43:15;99387.00;;;21.01;56.08
8039;BME280;4062;49.844;8.120;2022-08-21T08:45:20;99380.78;;;21.01;56.22
8039;BME280;4062;49.844;8.120;2022-08-21T08:47:24;99379.81;;;21.02;56.31
8039;BME280;4062;49.844;8.120;2022-08-21T08:50:25;99378.84;;;21.03;56.39
8039;BME280;4062;49.844;8.120;2022-08-21T08:52:23;99382.41;;;21.03;56.26
8039;BME280;4062;49.844;8.120;2022-08-21T08:54:38;99379.72;;;21.03;56.46
8039;BME280;4062;49.844;8.120;2022-08-21T08:56:40;99375.31;;;21.02;56.56
8039;BME280;4062;49.844;8.120;2022-08-21T08:58:42;99374.34;;;21.03;56.34
8039;BME280;4062;49.844;8.120;2022-08-21T09:00:49;99378.84;;;21.03;56.19
8039;BME280;4062;49.844;8.120;2022-08-21T09:02:54;99379.72;;;21.03;56.26
8039;BME280;4062;49.844;8.120;2022-08-21T09:04:57;99380.56;;;21.04;56.57
8039;BME280;4062;49.844;8.120;2022-08-21T09:09:48;99379.59;;;21.05;56.32
8039;BME280;4062;49.844;8.120;2022-08-21T09:12:04;99378.63;;;21.06;56.15
8039;BME280;4062;49.844;8.120;2022-08-21T09:16:53;99367.91;;;21.06;56.44
8039;BME280;4062;49.844;8.120;2022-08-21T09:19:21;99372.41;;;21.05;56.30
8039;BME280;4062;49.844;8.120;2022-08-21T09:22:15;99375.94;;;21.06;56.06
8039;BME280;4062;49.844;8.120;2022-08-21T09:24:32;99374.16;;;21.06;56.24
8039;BME280;4062;49.844;8.120;2022-08-21T09:28:59;99378.63;;;21.06;56.07
8039;BME280;4062;49.844;8.120;2022-08-21T09:31:06;99378.63;;;21.06;56.05
8039;BME280;4062;49.844;8.120;2022-08-21T09:33:12;99376.84;;;21.06;56.33
8039;BME280;4062;49.844;8.120;2022-08-21T09:35:22;99375.94;;;21.06;56.12
8039;BME280;4062;49.844;8.120;2022-08-21T09:37:26;99378.63;;;21.06;56.37
8039;BME280;4062;49.844;8.120;2022-08-21T09:39:37;99380.47;;;21.05;56.28
8039;BME280;4062;49.844;8.120;2022-08-21T09:41:40;99373.38;;;21.04;56.24
8039;BME280;4062;49.844;8.120;2022-08-21T09:43:40;99368.84;;;21.05;56.33
8039;BME280;4062;49.844;8.120;2022-08-21T09:46:12;99361.75;;;21.04;56.66
8039;BME280;4062;49.844;8.120;2022-08-21T09:48:23;99358.22;;;21.03;56.38
8039;BME280;4062;49.844;8.120;2022-08-21T09:50:26;99364.44;;;21.04;56.14
8039;BME280;4062;49.844;8.120;2022-08-21T09:52:27;99355.53;;;21.03;56.50
8039;BME280;4062;49.844;8.120;2022-08-21T09:54:39;99353.81;;;21.02;56.26
8039;BME280;4062;49.844;8.120;2022-08-21T09:59:32;99349.22;;;21.04;56.29
8039;BME280;4062;49.844;8.120;2022-08-21T10:01:44;99347.38;;;21.05;56.14
8039;BME280;4062;49.844;8.120;2022-08-21T10:03:46;99344.69;;;21.05;56.25
8039;BME280;4062;49.844;8.120;2022-08-21T10:06:08;99345.56;;;21.05;56.23
8039;BME280;4062;49.844;8.120;2022-08-21T10:08:19;99334.81;;;21.05;56.13
8039;BME280;4062;49.844;8.120;2022-08-21T10:10:26;99332.13;;;21.05;56.23
8039;BME280;4062;49.844;8.120;2022-08-21T10:17:41;99333.84;;;21.06;56.49
8039;BME280;4062;49.844;8.120;2022-08-21T10:20:37;99338.22;;;21.07;56.28
8039;BME280;4062;49.844;8.120;2022-08-21T10:25:26;99332.13;;;21.05;56.04
8039;BME280;4062;49.844;8.120;2022-08-21T10:27:58;99329.44;;;21.05;56.16
8039;BME280;4062;49.844;8.120;2022-08-21T10:30:11;99320.50;;;21.05;56.10
8039;BME280;4062;49.844;8.120;2022-08-21T10:35:28;99323.19;;;21.05;56.23
8039;BME280;4062;49.844;8.120;2022-08-21T10:38:32;99324.16;;;21.04;56.23
8039;BME280;4062;49.844;8.120;2022-08-21T10:41:14;99322.34;;;21.04;56.12
8039;BME280;4062;49.844;8.120;2022-08-21T10:48:39;99320.50;;;21.05;56.39
8039;BME280;4062;49.844;8.120;2022-08-21T10:50:54;99312.44;;;21.05;56.41
8039;BME280;4062;49.844;8.120;2022-08-21T10:53:38;99308.03;;;21.04;56.49
8039;BME280;4062;49.844;8.120;2022-08-21T10:58:05;99315.25;;;21.03;56.44
8039;BME280;4062;49.844;8.120;2022-08-21T11:00:17;99304.50;;;21.03;56.25
8039;BME280;4062;49.844;8.120;2022-08-21T11:02:41;99305.34;;;21.04;56.53
8039;BME280;4062;49.844;8.120;2022-08-21T11:05:09;99298.25;;;21.03;56.43
8039;BME280;4062;49.844;8.120;2022-08-21T11:07:20;99295.56;;;21.03;56.49
8039;BME280;4062;49.844;8.120;2022-08-21T11:09:24;99291.91;;;21.04;56.29
8039;BME280;4062;49.844;8.120;2022-08-21T11:14:40;99282.13;;;21.03;56.48
8039;BME280;4062;49.844;8.120;2022-08-21T11:16:57;99286.66;;;21.02;56.44
8039;BME280;4062;49.844;8.120;2022-08-21T11:19:08;99281.28;;;21.02;56.44
8039;BME280;4062;49.844;8.120;2022-08-21T11:23:56;99285.81;;;21.02;56.25
8039;BME280;4062;49.844;8.120;2022-08-21T11:26:05;99286.66;;;21.02;56.22
8039;BME280;4062;49.844;8.120;2022-08-21T11:28:24;99286.66;;;21.02;56.20
8039;BME280;4062;49.844;8.120;2022-08-21T11:30:47;99287.50;;;21.03;56.43
8039;BME280;4062;49.844;8.120;2022-08-21T11:33:30;99288.50;;;21.02;56.32
8039;BME280;4062;49.844;8.120;2022-08-21T11:43:29;99281.41;;;21.01;56.49
8039;BME280;4062;49.844;8.120;2022-08-21T11:45:45;99276.88;;;21.01;56.40
8039;BME280;4062;49.844;8.120;2022-08-21T11:48:38;99275.06;;;21.02;56.46
8039;BME280;4062;49.844;8.120;2022-08-21T11:50:43;99267.97;;;21.01;56.07
8039;BME280;4062;49.844;8.120;2022-08-21T11:52:59;99264.41;;;21.00;56.20
8039;BME280;4062;49.844;8.120;2022-08-21T11:55:03;99257.31;;;20.99;56.35
8039;BME280;4062;49.844;8.120;2022-08-21T11:57:20;99265.28;;;21.01;56.14
8039;BME280;4062;49.844;8.120;2022-08-21T11:59:36;99262.69;;;20.99;56.64
8039;BME280;4062;49.844;8.120;2022-08-21T12:01:43;99258.19;;;21.00;56.46
8039;BME280;4062;49.844;8.120;2022-08-21T12:03:58;99260.00;;;20.99;56.27